sensor_id;sensor_type;location;lat;lon;timestamp;temperature;humidity
70534;SHT31;58088;51.186;17.130;2022-08-03T00:01:47;18.30;70.23
70534;SHT31;58088;51.186;17.130;2022-08-03T00:04:13;18.28;70.34
70534;SHT31;58088;51.186;17.130;2022-08-03T00:06:39;18.25;70.46
70534;SHT31;58088;51.186;17.130;2022-08-03T00:09:06;18.23;70.53
70534;SHT31;58088;51.186;17.130;2022-08-03T00:11:33;18.22;70.66
70534;SHT31;58088;51.186;17.130;2022-08-03T00:14:00;18.25;70.60
70534;SHT31;58088;51.186;17.130;2022-08-03T00:16:26;18.31;70.49
70534;SHT31;58088;51.186;17.130;2022-08-03T00:18:52;18.33;70.33
70534;SHT31;58088;51.186;17.130;2022-08-03T00:21:18;18.30;70.18
70534;SHT31;58088;51.186;17.130;2022-08-03T00:23:45;18.25;70.22
70534;SHT31;58088;51.186;17.130;2022-08-03T00:26:11;18.22;70.32
70534;SHT31;58088;51.186;17.130;2022-08-03T00:28:37;18.16;70.31
70534;SHT31;58088;51.186;17.130;2022-08-03T00:31:03;18.15;70.24
70534;SHT31;58088;51.186;17.130;2022-08-03T00:33:29;18.16;70.38
70534;SHT31;58088;51.186;17.130;2022-08-03T00:35:55;18.15;70.50
70534;SHT31;58088;51.186;17.130;2022-08-03T00:38:21;18.16;70.54
70534;SHT31;58088;51.186;17.130;2022-08-03T00:40:47;18.18;70.43
70534;SHT31;58088;51.186;17.130;2022-08-03T00:43:14;18.18;70.18
70534;SHT31;58088;51.186;17.130;2022-08-03T00:45:41;18.18;70.09
70534;SHT31;58088;51.186;17.130;2022-08-03T00:48:08;18.12;70.12
70534;SHT31;58088;51.186;17.130;2022-08-03T00:50:38;18.05;70.21
70534;SHT31;58088;51.186;17.130;2022-08-03T00:53:07;17.99;70.28
70534;SHT31;58088;51.186;17.130;2022-08-03T00:55:37;17.94;70.53
70534;SHT31;58088;51.186;17.130;2022-08-03T00:58:04;17.88;70.68
70534;SHT31;58088;51.186;17.130;2022-08-03T01:00:32;17.84;70.73
70534;SHT31;58088;51.186;17.130;2022-08-03T01:03:22;17.86;70.80
70534;SHT31;58088;51.186;17.130;2022-08-03T01:11:29;17.76;70.91
70534;SHT31;58088;51.186;17.130;2022-08-03T01:14:09;17.73;70.96
70534;SHT31;58088;51.186;17.130;2022-08-03T01:16:54;17.71;71.04
70534;SHT31;58088;51.186;17.130;2022-08-03T01:19:40;17.60;71.14
70534;SHT31;58088;51.186;17.130;2022-08-03T01:25:39;17.60;71.35
70534;SHT31;58088;51.186;17.130;2022-08-03T01:28:38;17.60;71.46
70534;SHT31;58088;51.186;17.130;2022-08-03T01:31:29;17.60;71.53
70534;SHT31;58088;51.186;17.130;2022-08-03T01:34:07;17.57;71.60
70534;SHT31;58088;51.186;17.130;2022-08-03T01:36:42;17.58;71.55
70534;SHT31;58088;51.186;17.130;2022-08-03T01:39:16;17.60;71.43
70534;SHT31;58088;51.186;17.130;2022-08-03T01:41:47;17.60;71.40
70534;SHT31;58088;51.186;17.130;2022-08-03T01:44:29;17.58;71.39
70534;SHT31;58088;51.186;17.130;2022-08-03T01:47:00;17.55;71.39
70534;SHT31;58088;51.186;17.130;2022-08-03T01:49:29;17.54;71.53
70534;SHT31;58088;51.186;17.130;2022-08-03T01:52:03;17.50;71.71
70534;SHT31;58088;51.186;17.130;2022-08-03T01:54:34;17.49;71.74
70534;SHT31;58088;51.186;17.130;2022-08-03T01:57:08;17.49;71.73
70534;SHT31;58088;51.186;17.130;2022-08-03T01:59:36;17.41;71.78
70534;SHT31;58088;51.186;17.130;2022-08-03T02:02:05;17.38;71.92
70534;SHT31;58088;51.186;17.130;2022-08-03T02:04:37;17.38;72.08
70534;SHT31;58088;51.186;17.130;2022-08-03T02:07:08;17.40;72.07
70534;SHT31;58088;51.186;17.130;2022-08-03T02:09:38;17.40;72.06
70534;SHT31;58088;51.186;17.130;2022-08-03T02:12:10;17.39;72.15
70534;SHT31;58088;51.186;17.130;2022-08-03T02:14:40;17.37;72.22
70534;SHT31;58088;51.186;17.130;2022-08-03T02:17:11;17.37;72.27
70534;SHT31;58088;51.186;17.130;2022-08-03T02:19:44;17.39;72.35
70534;SHT31;58088;51.186;17.130;2022-08-03T02:22:14;17.37;72.49
70534;SHT31;58088;51.186;17.130;2022-08-03T02:24:43;17.39;72.50
70534;SHT31;58088;51.186;17.130;2022-08-03T02:27:17;17.35;72.55
70534;SHT31;58088;51.186;17.130;2022-08-03T02:29:54;17.38;72.60
70534;SHT31;58088;51.186;17.130;2022-08-03T02:32:36;17.41;72.52
70534;SHT31;58088;51.186;17.130;2022-08-03T02:35:10;17.39;72.68
70534;SHT31;58088;51.186;17.130;2022-08-03T02:37:41;17.39;72.63
70534;SHT31;58088;51.186;17.130;2022-08-03T02:40:15;17.38;72.61
70534;SHT31;58088;51.186;17.130;2022-08-03T02:42:46;17.35;72.54
70534;SHT31;58088;51.186;17.130;2022-08-03T02:45:19;17.31;72.66
70534;SHT31;58088;51.186;17.130;2022-08-03T02:47:49;17.29;72.84
70534;SHT31;58088;51.186;17.130;2022-08-03T02:50:25;17.28;72.97
70534;SHT31;58088;51.186;17.130;2022-08-03T02:52:55;17.30;73.03
70534;SHT31;58088;51.186;17.130;2022-08-03T02:55:26;17.35;73.09
70534;SHT31;58088;51.186;17.130;2022-08-03T02:57:56;17.40;73.30
70534;SHT31;58088;51.186;17.130;2022-08-03T03:00:25;17.44;73.32
70534;SHT31;58088;51.186;17.130;2022-08-03T03:02:52;17.50;73.19
70534;SHT31;58088;51.186;17.130;2022-08-03T03:05:24;17.51;73.14
70534;SHT31;58088;51.186;17.130;2022-08-03T03:07:52;17.51;73.28
70534;SHT31;58088;51.186;17.130;2022-08-03T03:10:23;17.53;73.40
70534;SHT31;58088;51.186;17.130;2022-08-03T03:12:52;17.56;73.34
70534;SHT31;58088;51.186;17.130;2022-08-03T03:15:26;17.55;73.44
70534;SHT31;58088;51.186;17.130;2022-08-03T03:17:55;17.56;73.61
70534;SHT31;58088;51.186;17.130;2022-08-03T03:20:24;17.58;73.72
70534;SHT31;58088;51.186;17.130;2022-08-03T03:22:52;17.58;73.87
70534;SHT31;58088;51.186;17.130;2022-08-03T03:25:20;17.60;73.94
70534;SHT31;58088;51.186;17.130;2022-08-03T03:27:48;17.62;74.15
70534;SHT31;58088;51.186;17.130;2022-08-03T03:30:15;17.67;74.19
70534;SHT31;58088;51.186;17.130;2022-08-03T03:32:41;17.71;74.29
70534;SHT31;58088;51.186;17.130;2022-08-03T03:35:08;17.71;74.54
70534;SHT31;58088;51.186;17.130;2022-08-03T03:37:35;17.76;74.61
70534;SHT31;58088;51.186;17.130;2022-08-03T03:40:01;17.80;74.53
70534;SHT31;58088;51.186;17.130;2022-08-03T03:42:29;17.84;74.52
70534;SHT31;58088;51.186;17.130;2022-08-03T03:44:55;17.89;74.55
70534;SHT31;58088;51.186;17.130;2022-08-03T03:47:22;17.91;74.81
70534;SHT31;58088;51.186;17.130;2022-08-03T03:49:48;17.96;74.93
70534;SHT31;58088;51.186;17.130;2022-08-03T03:52:15;17.99;75.15
70534;SHT31;58088;51.186;17.130;2022-08-03T03:54:42;18.04;75.23
70534;SHT31;58088;51.186;17.130;2022-08-03T03:57:10;18.16;75.09
70534;SHT31;58088;51.186;17.130;2022-08-03T03:59:41;18.30;74.95
70534;SHT31;58088;51.186;17.130;2022-08-03T04:02:08;18.50;74.80
70534;SHT31;58088;51.186;17.130;2022-08-03T04:04:37;18.66;74.56
70534;SHT31;58088;51.186;17.130;2022-08-03T04:07:22;18.75;74.34
70534;SHT31;58088;51.186;17.130;2022-08-03T04:10:12;18.79;74.18
70534;SHT31;58088;51.186;17.130;2022-08-03T04:13:06;18.83;74.00
70534;SHT31;58088;51.186;17.130;2022-08-03T04:15:37;18.89;73.80
70534;SHT31;58088;51.186;17.130;2022-08-03T04:18:05;18.89;73.76
70534;SHT31;58088;51.186;17.130;2022-08-03T04:20:36;18.93;73.65
70534;SHT31;58088;51.186;17.130;2022-08-03T04:23:05;18.96;73.49
70534;SHT31;58088;51.186;17.130;2022-08-03T04:25:34;18.98;73.34
70534;SHT31;58088;51.186;17.130;2022-08-03T04:28:04;18.92;73.36
70534;SHT31;58088;51.186;17.130;2022-08-03T04:30:33;18.94;73.37
70534;SHT31;58088;51.186;17.130;2022-08-03T04:33:03;19.00;73.19
70534;SHT31;58088;51.186;17.130;2022-08-03T04:35:33;18.98;73.12
70534;SHT31;58088;51.186;17.130;2022-08-03T04:38:01;18.94;73.21
70534;SHT31;58088;51.186;17.130;2022-08-03T04:40:32;18.94;73.12
70534;SHT31;58088;51.186;17.130;2022-08-03T04:43:02;18.98;73.17
70534;SHT31;58088;51.186;17.130;2022-08-03T04:45:30;19.02;73.01
70534;SHT31;58088;51.186;17.130;2022-08-03T04:47:59;19.04;72.91
70534;SHT31;58088;51.186;17.130;2022-08-03T04:50:25;19.09;72.86
70534;SHT31;58088;51.186;17.130;2022-08-03T04:53:07;19.11;72.80
70534;SHT31;58088;51.186;17.130;2022-08-03T04:55:34;19.12;72.70
70534;SHT31;58088;51.186;17.130;2022-08-03T04:58:01;19.19;72.68
70534;SHT31;58088;51.186;17.130;2022-08-03T05:00:29;19.42;72.50
70534;SHT31;58088;51.186;17.130;2022-08-03T05:02:55;19.78;72.02
70534;SHT31;58088;51.186;17.130;2022-08-03T05:05:21;20.00;71.39
70534;SHT31;58088;51.186;17.130;2022-08-03T05:07:48;20.51;70.70
70534;SHT31;58088;51.186;17.130;2022-08-03T05:10:14;21.29;69.64
70534;SHT31;58088;51.186;17.130;2022-08-03T05:12:42;21.67;68.27
70534;SHT31;58088;51.186;17.130;2022-08-03T05:15:13;21.74;67.82
70534;SHT31;58088;51.186;17.130;2022-08-03T05:17:40;21.92;67.34
70534;SHT31;58088;51.186;17.130;2022-08-03T05:20:06;22.05;66.66
70534;SHT31;58088;51.186;17.130;2022-08-03T05:22:34;22.21;66.10
70534;SHT31;58088;51.186;17.130;2022-08-03T05:25:00;22.50;65.48
70534;SHT31;58088;51.186;17.130;2022-08-03T05:27:27;22.71;65.18
70534;SHT31;58088;51.186;17.130;2022-08-03T05:29:53;23.37;64.23
70534;SHT31;58088;51.186;17.130;2022-08-03T05:32:19;24.13;62.89
70534;SHT31;58088;51.186;17.130;2022-08-03T05:34:45;24.67;61.11
70534;SHT31;58088;51.186;17.130;2022-08-03T05:37:11;25.19;59.82
70534;SHT31;58088;51.186;17.130;2022-08-03T05:39:38;25.85;58.78
70534;SHT31;58088;51.186;17.130;2022-08-03T05:42:04;26.45;57.52
70534;SHT31;58088;51.186;17.130;2022-08-03T05:44:30;26.80;56.23
70534;SHT31;58088;51.186;17.130;2022-08-03T05:46:56;26.93;55.44
70534;SHT31;58088;51.186;17.130;2022-08-03T05:49:23;27.16;54.81
70534;SHT31;58088;51.186;17.130;2022-08-03T05:51:50;27.39;54.60
70534;SHT31;58088;51.186;17.130;2022-08-03T05:54:17;27.79;53.17
70534;SHT31;58088;51.186;17.130;2022-08-03T05:56:43;28.23;52.36
70534;SHT31;58088;51.186;17.130;2022-08-03T05:59:09;28.64;51.75
70534;SHT31;58088;51.186;17.130;2022-08-03T06:01:36;28.57;51.43
70534;SHT31;58088;51.186;17.130;2022-08-03T06:04:02;28.60;51.07
70534;SHT31;58088;51.186;17.130;2022-08-03T06:06:29;28.83;50.91
70534;SHT31;58088;51.186;17.130;2022-08-03T06:08:55;29.30;49.84
70534;SHT31;58088;51.186;17.130;2022-08-03T06:11:22;29.68;48.98
70534;SHT31;58088;51.186;17.130;2022-08-03T06:13:49;30.04;48.09
70534;SHT31;58088;51.186;17.130;2022-08-03T06:16:15;30.31;47.53
70534;SHT31;58088;51.186;17.130;2022-08-03T06:18:41;30.60;47.30
70534;SHT31;58088;51.186;17.130;2022-08-03T06:21:08;30.93;45.85
70534;SHT31;58088;51.186;17.130;2022-08-03T06:23:35;31.02;45.50
70534;SHT31;58088;51.186;17.130;2022-08-03T06:26:02;31.21;45.48
70534;SHT31;58088;51.186;17.130;2022-08-03T06:28:29;31.32;44.96
70534;SHT31;58088;51.186;17.130;2022-08-03T06:31:01;31.33;44.61
70534;SHT31;58088;51.186;17.130;2022-08-03T06:33:34;31.52;44.16
70534;SHT31;58088;51.186;17.130;2022-08-03T06:36:07;31.72;43.59
70534;SHT31;58088;51.186;17.130;2022-08-03T06:38:38;31.68;42.69
70534;SHT31;58088;51.186;17.130;2022-08-03T06:41:10;31.76;43.00
70534;SHT31;58088;51.186;17.130;2022-08-03T06:43:42;32.00;42.73
70534;SHT31;58088;51.186;17.130;2022-08-03T06:46:13;32.05;42.46
70534;SHT31;58088;51.186;17.130;2022-08-03T06:48:45;32.18;42.33
70534;SHT31;58088;51.186;17.130;2022-08-03T06:51:17;32.18;42.20
70534;SHT31;58088;51.186;17.130;2022-08-03T06:53:43;32.32;42.22
70534;SHT31;58088;51.186;17.130;2022-08-03T06:56:10;32.52;42.02
70534;SHT31;58088;51.186;17.130;2022-08-03T06:58:36;32.67;41.19
70534;SHT31;58088;51.186;17.130;2022-08-03T07:01:03;32.80;40.72
70534;SHT31;58088;51.186;17.130;2022-08-03T07:03:30;32.91;40.45
70534;SHT31;58088;51.186;17.130;2022-08-03T07:05:56;33.01;39.95
70534;SHT31;58088;51.186;17.130;2022-08-03T07:08:23;33.01;39.62
70534;SHT31;58088;51.186;17.130;2022-08-03T07:10:50;33.08;39.87
70534;SHT31;58088;51.186;17.130;2022-08-03T07:13:16;33.25;39.85
70534;SHT31;58088;51.186;17.130;2022-08-03T07:15:42;33.36;39.47
70534;SHT31;58088;51.186;17.130;2022-08-03T07:18:08;33.40;39.03
70534;SHT31;58088;51.186;17.130;2022-08-03T07:20:35;33.24;38.87
70534;SHT31;58088;51.186;17.130;2022-08-03T07:23:04;33.20;39.19
70534;SHT31;58088;51.186;17.130;2022-08-03T07:25:30;33.28;39.72
70534;SHT31;58088;51.186;17.130;2022-08-03T07:27:56;33.47;39.78
70534;SHT31;58088;51.186;17.130;2022-08-03T07:30:23;33.62;39.16
70534;SHT31;58088;51.186;17.130;2022-08-03T07:32:49;33.61;38.71
70534;SHT31;58088;51.186;17.130;2022-08-03T07:35:15;33.41;38.86
70534;SHT31;58088;51.186;17.130;2022-08-03T07:37:43;33.42;39.57
70534;SHT31;58088;51.186;17.130;2022-08-03T07:40:09;33.59;39.00
70534;SHT31;58088;51.186;17.130;2022-08-03T07:42:37;33.75;38.92
70534;SHT31;58088;51.186;17.130;2022-08-03T07:45:03;33.96;38.85
70534;SHT31;58088;51.186;17.130;2022-08-03T07:47:30;34.16;38.55
70534;SHT31;58088;51.186;17.130;2022-08-03T07:49:58;34.22;38.03
70534;SHT31;58088;51.186;17.130;2022-08-03T07:52:24;34.22;37.44
70534;SHT31;58088;51.186;17.130;2022-08-03T07:55:09;33.94;37.16
70534;SHT31;58088;51.186;17.130;2022-08-03T07:57:36;33.92;37.26
70534;SHT31;58088;51.186;17.130;2022-08-03T08:00:03;33.90;37.55
70534;SHT31;58088;51.186;17.130;2022-08-03T08:02:39;33.80;36.87
70534;SHT31;58088;51.186;17.130;2022-08-03T08:05:06;33.64;36.61
70534;SHT31;58088;51.186;17.130;2022-08-03T08:07:35;33.42;37.20
70534;SHT31;58088;51.186;17.130;2022-08-03T08:10:06;33.20;36.99
70534;SHT31;58088;51.186;17.130;2022-08-03T08:12:35;32.99;37.28
70534;SHT31;58088;51.186;17.130;2022-08-03T08:15:07;33.00;37.77
70534;SHT31;58088;51.186;17.130;2022-08-03T08:17:47;33.05;37.53
70534;SHT31;58088;51.186;17.130;2022-08-03T08:20:21;33.06;37.42
70534;SHT31;58088;51.186;17.130;2022-08-03T08:22:53;33.18;37.48
70534;SHT31;58088;51.186;17.130;2022-08-03T08:25:24;33.35;37.61
70534;SHT31;58088;51.186;17.130;2022-08-03T08:27:51;33.28;36.73
70534;SHT31;58088;51.186;17.130;2022-08-03T08:30:19;32.91;36.46
70534;SHT31;58088;51.186;17.130;2022-08-03T08:32:48;32.74;37.38
70534;SHT31;58088;51.186;17.130;2022-08-03T08:35:15;32.83;37.49
70534;SHT31;58088;51.186;17.130;2022-08-03T08:37:44;32.93;37.60
70534;SHT31;58088;51.186;17.130;2022-08-03T08:40:11;33.00;37.22
70534;SHT31;58088;51.186;17.130;2022-08-03T08:42:39;32.93;36.92
70534;SHT31;58088;51.186;17.130;2022-08-03T08:45:10;32.96;37.23
70534;SHT31;58088;51.186;17.130;2022-08-03T08:47:38;33.10;37.32
70534;SHT31;58088;51.186;17.130;2022-08-03T08:50:09;33.23;37.23
70534;SHT31;58088;51.186;17.130;2022-08-03T08:52:36;33.35;37.03
70534;SHT31;58088;51.186;17.130;2022-08-03T08:55:09;33.47;36.90
70534;SHT31;58088;51.186;17.130;2022-08-03T08:57:44;33.55;36.49
70534;SHT31;58088;51.186;17.130;2022-08-03T09:00:26;33.52;36.66
70534;SHT31;58088;51.186;17.130;2022-08-03T09:02:52;33.53;36.65
70534;SHT31;58088;51.186;17.130;2022-08-03T09:05:19;33.47;35.71
70534;SHT31;58088;51.186;17.130;2022-08-03T09:07:46;33.40;36.12
70534;SHT31;58088;51.186;17.130;2022-08-03T09:10:15;33.38;36.37
70534;SHT31;58088;51.186;17.130;2022-08-03T09:12:47;33.37;36.29
70534;SHT31;58088;51.186;17.130;2022-08-03T09:15:24;33.31;36.06
70534;SHT31;58088;51.186;17.130;2022-08-03T09:17:57;33.21;36.14
70534;SHT31;58088;51.186;17.130;2022-08-03T09:20:31;33.23;36.04
70534;SHT31;58088;51.186;17.130;2022-08-03T09:23:02;33.08;36.28
70534;SHT31;58088;51.186;17.130;2022-08-03T09:25:36;33.13;35.95
70534;SHT31;58088;51.186;17.130;2022-08-03T09:30:41;33.14;36.40
70534;SHT31;58088;51.186;17.130;2022-08-03T09:33:32;33.01;36.00
70534;SHT31;58088;51.186;17.130;2022-08-03T09:36:32;32.87;36.41
70534;SHT31;58088;51.186;17.130;2022-08-03T09:39:05;32.94;36.36
70534;SHT31;58088;51.186;17.130;2022-08-03T09:41:36;33.04;35.71
70534;SHT31;58088;51.186;17.130;2022-08-03T09:44:06;33.03;36.05
70534;SHT31;58088;51.186;17.130;2022-08-03T09:46:52;32.78;36.62
70534;SHT31;58088;51.186;17.130;2022-08-03T09:49:26;32.70;36.16
70534;SHT31;58088;51.186;17.130;2022-08-03T09:51:52;32.56;36.01
70534;SHT31;58088;51.186;17.130;2022-08-03T09:54:29;32.49;36.14
70534;SHT31;58088;51.186;17.130;2022-08-03T09:56:57;32.42;35.89
70534;SHT31;58088;51.186;17.130;2022-08-03T09:59:27;32.45;36.12
70534;SHT31;58088;51.186;17.130;2022-08-03T10:01:57;32.56;36.47
70534;SHT31;58088;51.186;17.130;2022-08-03T10:04:25;32.60;36.21
70534;SHT31;58088;51.186;17.130;2022-08-03T10:09:32;32.68;35.82
70534;SHT31;58088;51.186;17.130;2022-08-03T10:12:19;32.52;35.92
70534;SHT31;58088;51.186;17.130;2022-08-03T10:14:46;32.38;36.14
70534;SHT31;58088;51.186;17.130;2022-08-03T10:17:12;32.38;36.47
70534;SHT31;58088;51.186;17.130;2022-08-03T10:19:39;32.45;36.16
70534;SHT31;58088;51.186;17.130;2022-08-03T10:22:12;32.41;35.72
70534;SHT31;58088;51.186;17.130;2022-08-03T10:27:36;32.31;35.77
70534;SHT31;58088;51.186;17.130;2022-08-03T10:30:08;32.22;35.92
70534;SHT31;58088;51.186;17.130;2022-08-03T10:35:20;32.30;35.53
70534;SHT31;58088;51.186;17.130;2022-08-03T10:37:51;32.36;35.87
70534;SHT31;58088;51.186;17.130;2022-08-03T10:40:25;32.47;35.99
70534;SHT31;58088;51.186;17.130;2022-08-03T10:43:02;32.45;35.60
70534;SHT31;58088;51.186;17.130;2022-08-03T10:45:41;32.51;36.05
70534;SHT31;58088;51.186;17.130;2022-08-03T10:48:11;32.60;35.91
70534;SHT31;58088;51.186;17.130;2022-08-03T10:50:38;32.62;36.05
70534;SHT31;58088;51.186;17.130;2022-08-03T10:53:08;32.67;36.08
70534;SHT31;58088;51.186;17.130;2022-08-03T10:55:42;32.79;35.95
70534;SHT31;58088;51.186;17.130;2022-08-03T11:01:08;32.98;35.48
70534;SHT31;58088;51.186;17.130;2022-08-03T11:06:19;32.87;35.66
70534;SHT31;58088;51.186;17.130;2022-08-03T11:08:49;32.94;35.29
70534;SHT31;58088;51.186;17.130;2022-08-03T11:11:35;32.99;35.17
70534;SHT31;58088;51.186;17.130;2022-08-03T11:14:04;33.06;34.81
70534;SHT31;58088;51.186;17.130;2022-08-03T11:16:34;33.07;34.77
70534;SHT31;58088;51.186;17.130;2022-08-03T11:19:04;33.13;34.65
70534;SHT31;58088;51.186;17.130;2022-08-03T11:35:56;33.25;34.57
70534;SHT31;58088;51.186;17.130;2022-08-03T11:38:01;33.26;34.87
70534;SHT31;58088;51.186;17.130;2022-08-03T11:43:00;33.28;34.60
70534;SHT31;58088;51.186;17.130;2022-08-03T11:45:28;33.31;34.94
70534;SHT31;58088;51.186;17.130;2022-08-03T11:47:55;33.32;34.08
70534;SHT31;58088;51.186;17.130;2022-08-03T11:50:24;33.35;33.28
70534;SHT31;58088;51.186;17.130;2022-08-03T11:52:51;33.36;32.38
70534;SHT31;58088;51.186;17.130;2022-08-03T11:55:19;33.37;32.55
70534;SHT31;58088;51.186;17.130;2022-08-03T11:57:46;33.42;32.70
70534;SHT31;58088;51.186;17.130;2022-08-03T12:00:33;33.34;32.17
70534;SHT31;58088;51.186;17.130;2022-08-03T12:03:00;33.19;31.64
70534;SHT31;58088;51.186;17.130;2022-08-03T12:05:34;33.30;31.95
70534;SHT31;58088;51.186;17.130;2022-08-03T12:08:03;33.41;32.45
70534;SHT31;58088;51.186;17.130;2022-08-03T12:10:31;33.40;32.85
70534;SHT31;58088;51.186;17.130;2022-08-03T12:12:59;33.41;33.25
70534;SHT31;58088;51.186;17.130;2022-08-03T12:15:33;33.36;32.69
70534;SHT31;58088;51.186;17.130;2022-08-03T12:18:07;33.27;32.78
70534;SHT31;58088;51.186;17.130;2022-08-03T12:20:41;33.25;33.33
70534;SHT31;58088;51.186;17.130;2022-08-03T12:23:09;33.20;33.30
70534;SHT31;58088;51.186;17.130;2022-08-03T12:25:37;33.24;33.16
70534;SHT31;58088;51.186;17.130;2022-08-03T12:30:47;33.04;32.78
70534;SHT31;58088;51.186;17.130;2022-08-03T12:33:18;32.98;32.28
70534;SHT31;58088;51.186;17.130;2022-08-03T12:36:02;32.90;32.88
70534;SHT31;58088;51.186;17.130;2022-08-03T12:38:36;32.86;33.95
70534;SHT31;58088;51.186;17.130;2022-08-03T12:41:05;32.86;32.95
70534;SHT31;58088;51.186;17.130;2022-08-03T12:43:47;32.88;33.03
70534;SHT31;58088;51.186;17.130;2022-08-03T12:46:17;32.99;32.46
70534;SHT31;58088;51.186;17.130;2022-08-03T12:48:57;33.02;32.78
70534;SHT31;58088;51.186;17.130;2022-08-03T12:51:28;32.99;33.10
70534;SHT31;58088;51.186;17.130;2022-08-03T12:53:59;32.87;32.74
70534;SHT31;58088;51.186;17.130;2022-08-03T12:56:27;32.81;33.06
70534;SHT31;58088;51.186;17.130;2022-08-03T12:58:53;32.76;32.57
70534;SHT31;58088;51.186;17.130;2022-08-03T13:01:20;32.75;33.05
70534;SHT31;58088;51.186;17.130;2022-08-03T13:03:50;32.82;34.00
70534;SHT31;58088;51.186;17.130;2022-08-03T13:06:19;32.84;32.75
70534;SHT31;58088;51.186;17.130;2022-08-03T13:09:01;32.76;32.01
70534;SHT31;58088;51.186;17.130;2022-08-03T13:11:31;32.72;32.09
70534;SHT31;58088;51.186;17.130;2022-08-03T13:13:58;32.67;31.81
70534;SHT31;58088;51.186;17.130;2022-08-03T13:16:24;32.59;32.28
70534;SHT31;58088;51.186;17.130;2022-08-03T13:18:51;32.56;31.73
70534;SHT31;58088;51.186;17.130;2022-08-03T13:21:19;32.60;32.25
70534;SHT31;58088;51.186;17.130;2022-08-03T13:23:46;32.67;32.39
70534;SHT31;58088;51.186;17.130;2022-08-03T13:26:13;32.62;32.19
70534;SHT31;58088;51.186;17.130;2022-08-03T13:28:40;32.61;32.47
70534;SHT31;58088;51.186;17.130;2022-08-03T13:31:07;32.62;32.62
70534;SHT31;58088;51.186;17.130;2022-08-03T13:33:35;32.62;32.46
70534;SHT31;58088;51.186;17.130;2022-08-03T13:36:05;32.57;32.05
70534;SHT31;58088;51.186;17.130;2022-08-03T13:38:32;32.55;32.65
70534;SHT31;58088;51.186;17.130;2022-08-03T13:40:58;32.54;32.62
70534;SHT31;58088;51.186;17.130;2022-08-03T13:43:26;32.50;32.10
70534;SHT31;58088;51.186;17.130;2022-08-03T13:45:53;32.44;32.18
70534;SHT31;58088;51.186;17.130;2022-08-03T13:48:19;32.47;33.30
70534;SHT31;58088;51.186;17.130;2022-08-03T13:50:46;32.49;32.09
70534;SHT31;58088;51.186;17.130;2022-08-03T13:53:12;32.50;32.21
70534;SHT31;58088;51.186;17.130;2022-08-03T13:55:38;32.44;32.20
70534;SHT31;58088;51.186;17.130;2022-08-03T13:58:05;32.38;32.13
70534;SHT31;58088;51.186;17.130;2022-08-03T14:00:34;32.34;32.62
70534;SHT31;58088;51.186;17.130;2022-08-03T14:03:00;32.35;32.88
70534;SHT31;58088;51.186;17.130;2022-08-03T14:05:28;32.38;33.01
70534;SHT31;58088;51.186;17.130;2022-08-03T14:07:56;32.35;32.39
70534;SHT31;58088;51.186;17.130;2022-08-03T14:10:22;32.35;32.40
70534;SHT31;58088;51.186;17.130;2022-08-03T14:12:49;32.40;32.83
70534;SHT31;58088;51.186;17.130;2022-08-03T14:15:15;32.44;32.71
70534;SHT31;58088;51.186;17.130;2022-08-03T14:17:41;32.44;32.54
70534;SHT31;58088;51.186;17.130;2022-08-03T14:20:08;32.41;32.93
70534;SHT31;58088;51.186;17.130;2022-08-03T14:22:37;32.40;33.14
70534;SHT31;58088;51.186;17.130;2022-08-03T14:25:03;32.39;32.51
70534;SHT31;58088;51.186;17.130;2022-08-03T14:27:31;32.33;32.58
70534;SHT31;58088;51.186;17.130;2022-08-03T14:29:57;32.30;32.97
70534;SHT31;58088;51.186;17.130;2022-08-03T14:32:26;32.25;32.33
70534;SHT31;58088;51.186;17.130;2022-08-03T14:34:53;32.22;32.61
70534;SHT31;58088;51.186;17.130;2022-08-03T14:37:19;32.22;32.44
70534;SHT31;58088;51.186;17.130;2022-08-03T14:39:45;32.17;31.80
70534;SHT31;58088;51.186;17.130;2022-08-03T14:42:13;32.17;32.43
70534;SHT31;58088;51.186;17.130;2022-08-03T14:44:40;32.16;32.91
70534;SHT31;58088;51.186;17.130;2022-08-03T14:47:07;32.13;32.23
70534;SHT31;58088;51.186;17.130;2022-08-03T14:49:33;32.10;32.25
70534;SHT31;58088;51.186;17.130;2022-08-03T14:51:59;32.05;32.39
70534;SHT31;58088;51.186;17.130;2022-08-03T14:54:25;32.00;32.54
70534;SHT31;58088;51.186;17.130;2022-08-03T14:56:55;31.94;32.57
70534;SHT31;58088;51.186;17.130;2022-08-03T14:59:22;31.92;32.33
70534;SHT31;58088;51.186;17.130;2022-08-03T15:01:48;31.90;32.24
70534;SHT31;58088;51.186;17.130;2022-08-03T15:04:14;31.88;32.40
70534;SHT31;58088;51.186;17.130;2022-08-03T15:06:40;31.84;32.26
70534;SHT31;58088;51.186;17.130;2022-08-03T15:09:09;31.79;32.23
70534;SHT31;58088;51.186;17.130;2022-08-03T15:11:35;31.79;32.72
70534;SHT31;58088;51.186;17.130;2022-08-03T15:14:01;31.79;32.95
70534;SHT31;58088;51.186;17.130;2022-08-03T15:16:28;31.79;32.77
70534;SHT31;58088;51.186;17.130;2022-08-03T15:18:54;31.78;33.31
70534;SHT31;58088;51.186;17.130;2022-08-03T15:21:20;31.77;32.97
70534;SHT31;58088;51.186;17.130;2022-08-03T15:23:46;31.75;32.77
70534;SHT31;58088;51.186;17.130;2022-08-03T15:26:12;31.75;32.90
70534;SHT31;58088;51.186;17.130;2022-08-03T15:28:39;31.73;33.04
70534;SHT31;58088;51.186;17.130;2022-08-03T15:31:05;31.69;33.20
70534;SHT31;58088;51.186;17.130;2022-08-03T15:33:31;31.66;33.27
70534;SHT31;58088;51.186;17.130;2022-08-03T15:35:58;31.66;33.69
70534;SHT31;58088;51.186;17.130;2022-08-03T15:38:24;31.65;33.65
70534;SHT31;58088;51.186;17.130;2022-08-03T15:40:51;31.64;33.27
70534;SHT31;58088;51.186;17.130;2022-08-03T15:43:20;31.62;32.72
70534;SHT31;58088;51.186;17.130;2022-08-03T15:45:48;31.61;33.08
70534;SHT31;58088;51.186;17.130;2022-08-03T15:48:15;31.60;33.03
70534;SHT31;58088;51.186;17.130;2022-08-03T15:50:41;31.57;32.64
70534;SHT31;58088;51.186;17.130;2022-08-03T15:53:08;31.51;32.58
70534;SHT31;58088;51.186;17.130;2022-08-03T15:55:35;31.48;32.50
70534;SHT31;58088;51.186;17.130;2022-08-03T15:58:01;31.45;32.32
70534;SHT31;58088;51.186;17.130;2022-08-03T16:00:28;31.43;32.30
70534;SHT31;58088;51.186;17.130;2022-08-03T16:02:55;31.45;32.53
70534;SHT31;58088;51.186;17.130;2022-08-03T16:05:21;31.44;32.99
70534;SHT31;58088;51.186;17.130;2022-08-03T16:07:47;31.41;33.37
70534;SHT31;58088;51.186;17.130;2022-08-03T16:10:18;31.38;33.71
70534;SHT31;58088;51.186;17.130;2022-08-03T16:12:46;31.35;33.49
70534;SHT31;58088;51.186;17.130;2022-08-03T16:15:13;31.30;33.15